Terminal Aerodrome Forecast
Issued by NWS Wilmington, OH

Home | Current Version | Previous Version | Text Only | Print | Product List | Glossary On
Versions: 1 2 3 4 5 6 7 8 9 10 11 12 13 14 15 16 17 18 19 20 21 22 23 24 25
000
FTUS41 KILN 030711 AAA
TAFDAY
TAF AMD
KDAY 030711Z 0307/0406 04008KT P6SM SCT015 OVC050
      TEMPO 0307/0311 BKN015
     FM031400 01006KT P6SM SCT015 OVC022
     FM031800 32006KT P6SM BKN040
     FM040300 28005KT P6SM SCT040 SCT100=

USA.gov is the U.S. government's official web portal to all federal, state and local government web resources and services.